createdAt,value
2023-10-08T00:00:35.015Z,-20506.66
2023-10-08T00:01:41.979Z,-20510.91
2023-10-08T00:02:44.347Z,-20505.19
2023-10-08T00:03:51.020Z,-20508.31
2023-10-08T00:04:58.684Z,-20507.59
2023-10-08T00:06:07.892Z,-20508.69
2023-10-08T00:07:10.344Z,-20506.13
2023-10-08T00:08:12.703Z,-20505.75
2023-10-08T00:09:16.970Z,-20505.75
2023-10-08T00:10:19.629Z,-20505.56
2023-10-08T00:11:24.041Z,-20503.53
2023-10-08T00:12:26.505Z,-20503.34
2023-10-08T00:13:29.971Z,-20506.47
2023-10-08T00:14:45.131Z,-20505.94
2023-10-08T00:15:59.568Z,-20505.00
2023-10-08T00:17:01.841Z,-20508.50
2023-10-08T00:18:07.237Z,-20511.28
2023-10-08T00:19:10.486Z,-20507.78
2023-10-08T00:20:26.373Z,-20507.97
2023-10-08T00:21:29.221Z,-20508.31
2023-10-08T00:22:37.204Z,-20510.16
2023-10-08T00:23:43.272Z,-20510.91
2023-10-08T00:24:47.972Z,-20510.91
2023-10-08T00:25:51.568Z,-20510.53
2023-10-08T00:26:55.728Z,-20512.38
2023-10-08T00:27:57.910Z,-20512.94
2023-10-08T00:29:23.262Z,-20515.34
2023-10-08T00:30:25.619Z,-20511.28
2023-10-08T00:31:32.810Z,-20514.03
2023-10-08T00:32:35.114Z,-20511.66
2023-10-08T00:33:37.391Z,-20513.13
2023-10-08T00:34:44.192Z,-20514.22
2023-10-08T00:35:46.670Z,-20506.47
2023-10-08T00:36:50.268Z,-20506.13
2023-10-08T00:37:52.743Z,-20507.59
2023-10-08T00:38:59.820Z,-20509.44
2023-10-08T00:40:05.652Z,-20510.16
2023-10-08T00:41:08.322Z,-20510.91
2023-10-08T00:42:10.783Z,-20512.03
2023-10-08T00:43:33.981Z,-20517.00
2023-10-08T00:44:48.790Z,-20515.72
2023-10-08T00:45:51.541Z,-20513.13
2023-10-08T00:46:56.562Z,-20511.66
2023-10-08T00:47:59.193Z,-20510.72
2023-10-08T00:49:23.681Z,-20511.47
2023-10-08T00:50:32.543Z,-20508.88
2023-10-08T00:51:41.254Z,-20511.47
2023-10-08T00:52:55.025Z,-20512.75
2023-10-08T00:54:11.521Z,-20517.94
2023-10-08T00:55:22.723Z,-20514.78
2023-10-08T00:56:45.205Z,-20517.19
2023-10-08T00:57:50.232Z,-20516.09
2023-10-08T00:58:55.045Z,-20512.75
2023-10-08T00:59:59.898Z,-20512.38
2023-10-08T01:01:03.790Z,-20511.28
2023-10-08T01:02:16.018Z,-20509.44
2023-10-08T01:03:20.497Z,-20509.25
2023-10-08T01:04:24.694Z,-20510.53
2023-10-08T01:05:38.313Z,-20510.00
2023-10-08T01:06:41.123Z,-20511.28
2023-10-08T01:07:49.131Z,-20514.41
2023-10-08T01:08:55.575Z,-20510.91
2023-10-08T01:10:01.706Z,-20510.16
2023-10-08T01:11:32.796Z,-20514.41
2023-10-08T01:12:35.258Z,-20516.44
2023-10-08T01:13:43.995Z,-20512.94
2023-10-08T01:14:48.012Z,-20510.16
2023-10-08T01:15:52.649Z,-20511.66
2023-10-08T01:16:54.970Z,-20511.47
2023-10-08T01:18:15.949Z,-20512.75
2023-10-08T01:19:21.602Z,-20514.59
2023-10-08T01:20:38.288Z,-20508.69
2023-10-08T01:21:41.354Z,-20507.97
2023-10-08T01:22:43.532Z,-20507.22
2023-10-08T01:23:48.559Z,-20510.16
2023-10-08T01:24:50.850Z,-20507.78
2023-10-08T01:25:53.701Z,-20509.25
2023-10-08T01:26:56.662Z,-20508.31
2023-10-08T01:28:02.759Z,-20507.59
2023-10-08T01:29:07.844Z,-20506.84
2023-10-08T01:30:19.273Z,-20508.88
2023-10-08T01:31:21.829Z,-20507.59
2023-10-08T01:32:24.375Z,-20506.84
2023-10-08T01:33:29.110Z,-20506.13
2023-10-08T01:34:37.504Z,-20505.75
2023-10-08T01:35:40.517Z,-20507.03
2023-10-08T01:36:45.471Z,-20505.56
2023-10-08T01:37:49.445Z,-20505.75
2023-10-08T01:38:51.745Z,-20505.00
2023-10-08T01:39:54.024Z,-20506.84
2023-10-08T01:40:57.660Z,-20506.13
2023-10-08T01:41:59.919Z,-20505.75
2023-10-08T01:43:04.760Z,-20508.31
2023-10-08T01:44:09.375Z,-20508.16
2023-10-08T01:45:18.968Z,-20508.69
2023-10-08T01:46:23.458Z,-20507.59
2023-10-08T01:47:26.799Z,-20507.59
2023-10-08T01:48:29.982Z,-20507.78
2023-10-08T01:49:34.648Z,-20507.97
2023-10-08T01:50:38.701Z,-20509.44
2023-10-08T01:51:47.881Z,-20507.59
2023-10-08T01:52:50.446Z,-20509.44
2023-10-08T01:53:55.601Z,-20510.16
2023-10-08T01:54:59.087Z,-20508.69
2023-10-08T01:56:22.305Z,-20510.91
2023-10-08T01:57:27.438Z,-20507.59
2023-10-08T01:58:29.671Z,-20508.16
2023-10-08T01:59:32.765Z,-20509.06
2023-10-08T02:00:34.976Z,-20507.41
2023-10-08T02:01:37.473Z,-20507.78
2023-10-08T02:02:42.147Z,-20507.59
2023-10-08T02:03:44.639Z,-20507.59
2023-10-08T02:04:47.016Z,-20508.31
2023-10-08T02:05:49.402Z,-20508.69
2023-10-08T02:06:51.965Z,-20508.31
2023-10-08T02:07:56.081Z,-20508.31
2023-10-08T02:08:59.784Z,-20510.16
2023-10-08T02:10:02.119Z,-20510.91
2023-10-08T02:11:04.473Z,-20513.69
2023-10-08T02:12:06.686Z,-20514.22
2023-10-08T02:13:09.652Z,-20513.50
2023-10-08T02:14:12.795Z,-20512.03
2023-10-08T02:15:15.147Z,-20511.28
2023-10-08T02:16:20.618Z,-20515.16
2023-10-08T02:17:23.930Z,-20510.91
2023-10-08T02:18:26.881Z,-20512.38
2023-10-08T02:19:29.668Z,-20512.03
2023-10-08T02:20:32.318Z,-20512.38
2023-10-08T02:21:34.640Z,-20512.75
2023-10-08T02:22:37.188Z,-20511.84
2023-10-08T02:23:39.469Z,-20510.00
2023-10-08T02:24:41.724Z,-20511.28
2023-10-08T02:25:45.429Z,-20510.53
2023-10-08T02:26:47.653Z,-20510.53
2023-10-08T02:27:50.758Z,-20510.91
2023-10-08T02:28:53.105Z,-20509.81
2023-10-08T02:29:56.055Z,-20510.16
2023-10-08T02:30:59.300Z,-20510.53
2023-10-08T02:32:01.588Z,-20510.72
2023-10-08T02:33:04.103Z,-20513.50
2023-10-08T02:34:10.654Z,-20519.22
2023-10-08T02:35:14.327Z,-20513.69
2023-10-08T02:36:16.627Z,-20511.66
2023-10-08T02:37:20.750Z,-20510.53
2023-10-08T02:38:24.116Z,-20510.91
2023-10-08T02:39:30.958Z,-20511.28
2023-10-08T02:40:33.120Z,-20512.22
2023-10-08T02:41:35.330Z,-20513.50
2023-10-08T02:42:37.818Z,-20511.66
2023-10-08T02:43:40.964Z,-20513.88
2023-10-08T02:44:43.356Z,-20510.91
2023-10-08T02:45:50.742Z,-20510.53
2023-10-08T02:46:53.681Z,-20507.22
2023-10-08T02:47:56.607Z,-20508.50
2023-10-08T02:48:59.141Z,-20512.03
2023-10-08T02:50:01.570Z,-20510.00
2023-10-08T02:51:14.816Z,-20508.50
2023-10-08T02:52:17.042Z,-20507.22
2023-10-08T02:53:22.014Z,-20507.22
2023-10-08T02:54:32.543Z,-20509.06
2023-10-08T02:55:37.709Z,-20508.31
2023-10-08T02:56:40.338Z,-20506.47
2023-10-08T02:57:44.946Z,-20507.03
2023-10-08T02:58:48.852Z,-20506.47
2023-10-08T03:00:21.533Z,-20510.16
2023-10-08T03:01:23.847Z,-20503.16
2023-10-08T03:02:26.284Z,-20504.09
2023-10-08T03:03:29.755Z,-20504.25
2023-10-08T03:04:32.224Z,-20507.97
2023-10-08T03:05:37.305Z,-20507.03
2023-10-08T03:06:39.999Z,-20507.78
2023-10-08T03:07:42.401Z,-20505.38
2023-10-08T03:08:44.677Z,-20503.16
2023-10-08T03:09:46.909Z,-20503.91
2023-10-08T03:10:50.472Z,-20504.09
2023-10-08T03:11:53.901Z,-20503.16
2023-10-08T03:12:56.207Z,-20504.44
2023-10-08T03:13:58.730Z,-20502.59
2023-10-08T03:15:20.104Z,-20502.41
2023-10-08T03:16:29.253Z,-20500.38
2023-10-08T03:17:38.683Z,-20500.75
2023-10-08T03:18:46.388Z,-20501.31
2023-10-08T03:19:48.623Z,-20501.13
2023-10-08T03:20:51.031Z,-20500.19
2023-10-08T03:21:56.428Z,-20504.25
2023-10-08T03:22:58.769Z,-20503.91
2023-10-08T03:24:07.882Z,-20502.78
2023-10-08T03:25:17.332Z,-20502.59
2023-10-08T03:26:34.937Z,-20502.41
2023-10-08T03:27:42.953Z,-20503.72
2023-10-08T03:28:45.269Z,-20503.53
2023-10-08T03:29:48.407Z,-20504.09
2023-10-08T03:31:04.517Z,-20504.25
2023-10-08T03:32:08.017Z,-20501.31
2023-10-08T03:33:11.932Z,-20500.56
2023-10-08T03:34:16.295Z,-20504.09
2023-10-08T03:35:28.662Z,-20502.25
2023-10-08T03:36:37.205Z,-20499.84
2023-10-08T03:37:46.439Z,-20503.34
2023-10-08T03:38:52.509Z,-20505.19
2023-10-08T03:40:01.855Z,-20502.97
2023-10-08T03:41:10.324Z,-20505.38
2023-10-08T03:42:14.803Z,-20505.75
2023-10-08T03:43:35.193Z,-20504.44
2023-10-08T03:44:39.075Z,-20504.09
2023-10-08T03:46:00.515Z,-20501.13
2023-10-08T03:47:11.149Z,-20502.41
2023-10-08T03:48:16.614Z,-20502.06
2023-10-08T03:49:22.197Z,-20500.56
2023-10-08T03:50:34.110Z,-20504.44
2023-10-08T03:51:40.333Z,-20502.06
2023-10-08T03:52:44.475Z,-20502.78
2023-10-08T03:54:22.122Z,-20503.53
2023-10-08T03:55:27.996Z,-20501.69
2023-10-08T03:56:33.301Z,-20500.94
2023-10-08T03:57:45.328Z,-20500.56
2023-10-08T03:58:48.258Z,-20498.00
2023-10-08T03:59:55.985Z,-20500.19
2023-10-08T04:01:11.251Z,-20501.31
2023-10-08T04:02:23.471Z,-20501.13
2023-10-08T04:03:44.337Z,-20499.47
2023-10-08T04:04:58.878Z,-20500.19
2023-10-08T04:06:15.653Z,-20499.47
2023-10-08T04:07:33.716Z,-20501.13
2023-10-08T04:08:47.299Z,-20497.63
2023-10-08T04:09:53.336Z,-20497.44
2023-10-08T04:11:08.918Z,-20498.34
2023-10-08T04:12:19.628Z,-20500.94
2023-10-08T04:13:21.854Z,-20501.31
2023-10-08T04:14:25.917Z,-20502.78
2023-10-08T04:15:28.331Z,-20499.09
2023-10-08T04:16:31.350Z,-20498.34
2023-10-08T04:17:39.557Z,-20497.81
2023-10-08T04:18:41.866Z,-20501.69
2023-10-08T04:19:44.142Z,-20499.84
2023-10-08T04:21:01.866Z,-20502.41
2023-10-08T04:22:04.613Z,-20500.38
2023-10-08T04:23:28.798Z,-20502.25
2023-10-08T04:24:37.126Z,-20500.75
2023-10-08T04:25:39.312Z,-20496.88
2023-10-08T04:26:42.246Z,-20498.72
2023-10-08T04:27:48.922Z,-20499.84
2023-10-08T04:28:58.148Z,-20501.13
2023-10-08T04:30:01.396Z,-20495.97
2023-10-08T04:31:15.733Z,-20496.16
2023-10-08T04:32:25.903Z,-20498.00
2023-10-08T04:33:31.714Z,-20498.34
2023-10-08T04:34:34.878Z,-20502.25
2023-10-08T04:35:38.390Z,-20501.31
2023-10-08T04:36:41.142Z,-20499.28
2023-10-08T04:37:43.381Z,-20500.56
2023-10-08T04:38:47.234Z,-20501.31
2023-10-08T04:39:55.957Z,-20500.19
2023-10-08T04:41:03.228Z,-20497.25
2023-10-08T04:42:11.764Z,-20501.88
2023-10-08T04:43:13.963Z,-20501.50
2023-10-08T04:44:17.008Z,-20501.88
2023-10-08T04:45:27.317Z,-20500.56
2023-10-08T04:46:48.246Z,-20499.84
2023-10-08T04:47:50.938Z,-20501.31
2023-10-08T04:48:53.710Z,-20499.84
2023-10-08T04:49:57.808Z,-20499.09
2023-10-08T04:51:00.806Z,-20499.09
2023-10-08T04:52:17.269Z,-20499.09
2023-10-08T04:53:19.508Z,-20496.34
2023-10-08T04:54:23.473Z,-20496.88
2023-10-08T04:55:30.360Z,-20498.34
2023-10-08T04:56:34.321Z,-20496.69
2023-10-08T04:57:36.564Z,-20499.84
2023-10-08T04:58:41.404Z,-20497.44
2023-10-08T04:59:44.442Z,-20500.19
2023-10-08T05:01:00.576Z,-20499.47
2023-10-08T05:02:40.347Z,-20504.44
2023-10-08T05:03:55.846Z,-20502.78
2023-10-08T05:05:13.204Z,-20501.31
2023-10-08T05:06:28.067Z,-20500.56
2023-10-08T05:07:30.295Z,-20499.09
2023-10-08T05:08:59.789Z,-20499.47
2023-10-08T05:10:05.230Z,-20499.09
2023-10-08T05:11:25.712Z,-20501.88
2023-10-08T05:12:33.882Z,-20502.78
2023-10-08T05:13:46.569Z,-20500.38
2023-10-08T05:14:57.443Z,-20501.13
2023-10-08T05:16:34.546Z,-20507.22
2023-10-08T05:17:56.766Z,-20502.06
2023-10-08T05:19:25.818Z,-20501.31
2023-10-08T05:20:46.608Z,-20501.69
2023-10-08T05:22:07.024Z,-20501.69
2023-10-08T05:23:37.612Z,-20502.59
2023-10-08T05:24:40.855Z,-20499.84
2023-10-08T05:25:59.037Z,-20500.19
2023-10-08T05:27:21.163Z,-20500.75
2023-10-08T05:28:25.971Z,-20502.41
2023-10-08T05:29:50.987Z,-20502.78
2023-10-08T05:31:12.756Z,-20501.69
2023-10-08T05:32:33.590Z,-20503.16
2023-10-08T05:33:55.730Z,-20502.59
2023-10-08T05:35:17.844Z,-20501.50
2023-10-08T05:36:28.856Z,-20501.31
2023-10-08T05:37:38.983Z,-20500.19
2023-10-08T05:38:50.742Z,-20500.19
2023-10-08T05:39:57.117Z,-20499.84
2023-10-08T05:41:00.124Z,-20499.84
2023-10-08T05:42:17.988Z,-20499.47
2023-10-08T05:43:34.653Z,-20498.53
2023-10-08T05:44:40.967Z,-20498.53
2023-10-08T05:46:03.121Z,-20496.16
2023-10-08T05:47:27.748Z,-20496.16
2023-10-08T05:48:32.528Z,-20496.88
2023-10-08T05:49:35.024Z,-20497.25
2023-10-08T05:50:40.692Z,-20498.00
2023-10-08T05:51:50.510Z,-20499.47
2023-10-08T05:52:58.545Z,-20500.03
2023-10-08T05:54:04.441Z,-20500.19
2023-10-08T05:55:23.495Z,-20499.66
2023-10-08T05:56:43.210Z,-20498.91
2023-10-08T05:57:53.235Z,-20499.28
2023-10-08T05:59:15.492Z,-20500.03
2023-10-08T06:00:31.011Z,-20498.00
2023-10-08T06:01:55.779Z,-20495.78
2023-10-08T06:03:33.052Z,-20498.91
2023-10-08T06:04:54.629Z,-20501.31
2023-10-08T06:06:16.842Z,-20499.09
2023-10-08T06:07:34.269Z,-20498.72
2023-10-08T06:08:55.090Z,-20498.53
2023-10-08T06:10:14.927Z,-20501.31
2023-10-08T06:11:44.494Z,-20502.97
2023-10-08T06:12:51.301Z,-20501.69
2023-10-08T06:14:01.050Z,-20503.34
2023-10-08T06:15:09.607Z,-20502.78
2023-10-08T06:16:14.572Z,-20505.75
2023-10-08T06:17:35.673Z,-20504.63
2023-10-08T06:18:38.532Z,-20508.16
2023-10-08T06:19:41.072Z,-20507.97
2023-10-08T06:20:46.409Z,-20508.69
2023-10-08T06:21:48.596Z,-20508.69
2023-10-08T06:22:51.169Z,-20509.06
2023-10-08T06:23:57.515Z,-20508.16
2023-10-08T06:25:17.850Z,-20507.03
2023-10-08T06:26:22.314Z,-20506.84
2023-10-08T06:27:26.509Z,-20505.75
2023-10-08T06:28:28.867Z,-20507.41
2023-10-08T06:29:32.585Z,-20506.47
2023-10-08T06:30:35.936Z,-20506.84
2023-10-08T06:31:39.139Z,-20508.16
2023-10-08T06:32:41.435Z,-20510.16
2023-10-08T06:33:45.436Z,-20512.03
2023-10-08T06:34:48.153Z,-20507.97
2023-10-08T06:36:08.789Z,-20509.81
2023-10-08T06:37:11.391Z,-20512.94
2023-10-08T06:38:16.145Z,-20512.38
2023-10-08T06:39:20.207Z,-20516.63
2023-10-08T06:40:41.891Z,-20518.66
2023-10-08T06:41:48.909Z,-20522.53
2023-10-08T06:42:55.913Z,-20523.09
2023-10-08T06:44:04.320Z,-20526.41
2023-10-08T06:45:10.742Z,-20530.84
2023-10-08T06:46:13.679Z,-20537.13
2023-10-08T06:47:17.256Z,-20541.00
2023-10-08T06:48:24.762Z,-20548.38
2023-10-08T06:49:27.167Z,-20556.31
2023-10-08T06:50:30.858Z,-20561.13
2023-10-08T06:51:34.342Z,-20572.38
2023-10-08T06:52:37.524Z,-20584.00
2023-10-08T06:53:45.019Z,-20594.72
2023-10-08T06:54:48.270Z,-20592.69
2023-10-08T06:55:57.403Z,-20598.41
2023-10-08T06:57:01.020Z,-20617.03
2023-10-08T06:58:08.261Z,-20310.00
2023-10-08T06:59:11.038Z,-6992.91
2023-10-08T07:00:34.247Z,1798.34
2023-10-08T07:01:46.893Z,5385.66
2023-10-08T07:02:49.552Z,3754.69
2023-10-08T07:03:53.234Z,8321.41
2023-10-08T07:04:55.836Z,7014.91
2023-10-08T07:06:00.069Z,4079.44
2023-10-08T07:07:02.299Z,495.69
2023-10-08T07:08:07.798Z,-3084.66
2023-10-08T07:09:29.973Z,-3410.53
2023-10-08T07:10:32.151Z,-2757.97
2023-10-08T07:11:40.640Z,-4708.16
2023-10-08T07:12:46.382Z,-4707.59
2023-10-08T07:13:49.128Z,-7628.53
2023-10-08T07:14:53.207Z,-10221.91
2023-10-08T07:15:56.245Z,-10868.91
2023-10-08T07:17:01.318Z,-10224.91
2023-10-08T07:18:10.999Z,-11848.34
2023-10-08T07:19:20.105Z,-13803.97
2023-10-08T07:20:25.526Z,-17708.22
2023-10-08T07:21:39.923Z,-20642.81
2023-10-08T07:22:44.399Z,-18072.09
2023-10-08T07:23:59.233Z,-1143.47
2023-10-08T07:25:02.279Z,43247.47
2023-10-08T07:26:14.451Z,76460.75
2023-10-08T07:27:16.928Z,113981.31
2023-10-08T07:28:20.829Z,138297.28
2023-10-08T07:29:23.292Z,149500.03
2023-10-08T07:30:33.630Z,149506.09
2023-10-08T07:31:37.885Z,128835.16
2023-10-08T07:32:40.860Z,144875.03
2023-10-08T07:33:44.825Z,149564.56
2023-10-08T07:34:47.206Z,149591.28
2023-10-08T07:35:58.624Z,149700.84
2023-10-08T07:37:01.906Z,149683.78
2023-10-08T07:38:10.699Z,149787.28
2023-10-08T07:39:26.574Z,149822.56
2023-10-08T07:40:32.013Z,149883.44
2023-10-08T07:41:35.025Z,149885.88
2023-10-08T07:42:37.938Z,149910.25
2023-10-08T07:43:40.958Z,150007.72
2023-10-08T07:44:43.219Z,149954.06
2023-10-08T07:45:46.658Z,149978.44
2023-10-08T07:46:53.228Z,149856.66
2023-10-08T07:47:56.514Z,149954.06
2023-10-08T07:48:59.443Z,149939.47
2023-10-08T07:50:02.494Z,149913.91
2023-10-08T07:51:04.828Z,150019.88
2023-10-08T07:52:07.705Z,149995.56
2023-10-08T07:53:18.690Z,150021.09
2023-10-08T07:54:23.967Z,149987.00
2023-10-08T07:55:26.172Z,149954.06
2023-10-08T07:56:28.553Z,150073.50
2023-10-08T07:57:32.098Z,150091.78
2023-10-08T07:58:37.422Z,150121.03
2023-10-08T07:59:52.447Z,150196.59
2023-10-08T08:00:55.148Z,150262.41
2023-10-08T08:01:57.433Z,150405.06
2023-10-08T08:02:59.702Z,150497.72
2023-10-08T08:04:02.293Z,150673.38
2023-10-08T08:05:04.790Z,150680.75
2023-10-08T08:06:08.116Z,150699.00
2023-10-08T08:07:20.141Z,150690.50
2023-10-08T08:08:23.972Z,150822.31
2023-10-08T08:09:27.575Z,150956.59
2023-10-08T08:10:30.312Z,150913.84
2023-10-08T08:11:32.502Z,150959.03
2023-10-08T08:12:34.659Z,150939.50
2023-10-08T08:13:37.187Z,150830.84
2023-10-08T08:14:42.677Z,150897.97
2023-10-08T08:15:52.735Z,150819.88
2023-10-08T08:16:55.892Z,150911.41
2023-10-08T08:17:58.187Z,150795.44
2023-10-08T08:19:00.669Z,150797.88
2023-10-08T08:20:18.502Z,150801.53
2023-10-08T08:21:21.045Z,150810.13
2023-10-08T08:22:23.971Z,150827.19
2023-10-08T08:23:26.765Z,150896.75
2023-10-08T08:24:36.048Z,151066.47
2023-10-08T08:26:12.102Z,150981.03
2023-10-08T08:27:33.678Z,150888.22
2023-10-08T08:28:36.087Z,150695.38
2023-10-08T08:29:49.776Z,150673.38
2023-10-08T08:30:54.055Z,150553.84
2023-10-08T08:31:57.913Z,150446.50
2023-10-08T08:33:01.951Z,150353.84
2023-10-08T08:34:09.586Z,150297.75
2023-10-08T08:35:13.161Z,150200.25
2023-10-08T08:36:15.485Z,150189.31
2023-10-08T08:37:18.462Z,150195.38
2023-10-08T08:38:21.770Z,150158.78
2023-10-08T08:39:33.319Z,150073.50
2023-10-08T08:40:35.637Z,150102.75
2023-10-08T08:41:39.173Z,150049.13
2023-10-08T08:42:41.982Z,150029.66
2023-10-08T08:43:45.501Z,150029.66
2023-10-08T08:44:48.409Z,150027.22
2023-10-08T08:45:50.922Z,149988.22
2023-10-08T08:46:54.291Z,150056.47
2023-10-08T08:47:57.062Z,150054.00
2023-10-08T08:49:05.350Z,150114.91
2023-10-08T08:50:11.857Z,150052.78
2023-10-08T08:51:14.372Z,150022.38
2023-10-08T08:52:16.571Z,150051.56
2023-10-08T08:53:20.608Z,149978.44
2023-10-08T08:54:22.796Z,149983.31
2023-10-08T08:55:26.642Z,149985.72
2023-10-08T08:56:31.431Z,149954.06
2023-10-08T08:57:34.801Z,150005.28
2023-10-08T08:58:38.951Z,150071.06
2023-10-08T09:00:03.190Z,150100.31
2023-10-08T09:01:09.239Z,150160.00
2023-10-08T09:02:15.322Z,150268.50
2023-10-08T09:03:17.529Z,150336.75
2023-10-08T09:04:30.212Z,150400.19
2023-10-08T09:05:36.232Z,150396.53
2023-10-08T09:06:39.123Z,150430.66
2023-10-08T09:07:57.614Z,150470.88
2023-10-08T09:09:22.923Z,150481.91
2023-10-08T09:10:30.060Z,150419.72
2023-10-08T09:11:34.351Z,150390.44
2023-10-08T09:12:38.144Z,150403.84
2023-10-08T09:13:41.261Z,150425.81
2023-10-08T09:14:46.013Z,150424.59
2023-10-08T09:15:48.333Z,150403.84
2023-10-08T09:16:51.040Z,150437.97
2023-10-08T09:17:55.731Z,150468.47
2023-10-08T09:18:57.952Z,150409.94
2023-10-08T09:20:01.757Z,150334.31
2023-10-08T09:21:20.380Z,150358.72
2023-10-08T09:22:22.854Z,150303.84
2023-10-08T09:23:25.771Z,150242.91
2023-10-08T09:24:28.125Z,150266.06
2023-10-08T09:25:33.685Z,150203.91
2023-10-08T09:26:38.526Z,150142.94
2023-10-08T09:27:47.454Z,150144.16
2023-10-08T09:28:50.660Z,150131.97
2023-10-08T09:29:52.950Z,150114.91
2023-10-08T09:30:59.834Z,150066.19
2023-10-08T09:32:02.172Z,150024.78
2023-10-08T09:33:09.081Z,150038.16
2023-10-08T09:34:17.771Z,149983.31
2023-10-08T09:35:20.623Z,149963.84
2023-10-08T09:36:32.390Z,149933.41
2023-10-08T09:37:35.604Z,149909.03
2023-10-08T09:38:38.817Z,149899.31
2023-10-08T09:39:43.615Z,149893.22
2023-10-08T09:40:45.920Z,149917.53
2023-10-08T09:41:49.337Z,149990.69
2023-10-08T09:42:53.470Z,150015.00
2023-10-08T09:43:56.099Z,150073.50
2023-10-08T09:44:58.384Z,150186.88
2023-10-08T09:46:10.825Z,150301.41
2023-10-08T09:47:16.974Z,150300.19
2023-10-08T09:48:26.598Z,150353.84
2023-10-08T09:50:08.643Z,150447.72
2023-10-08T09:51:13.820Z,150481.91
2023-10-08T09:52:21.271Z,150507.47
2023-10-08T09:53:54.362Z,150517.25
2023-10-08T09:55:04.761Z,150534.31
2023-10-08T09:56:15.712Z,150548.97
2023-10-08T09:57:19.896Z,150478.19
2023-10-08T09:58:25.628Z,150507.47
2023-10-08T09:59:30.418Z,150502.59
2023-10-08T10:00:33.432Z,150522.13
2023-10-08T10:01:39.172Z,150480.63
2023-10-08T10:02:45.669Z,150567.28
2023-10-08T10:03:48.634Z,150680.75
2023-10-08T10:04:54.773Z,150570.94
2023-10-08T10:06:01.339Z,150729.53
2023-10-08T10:07:15.505Z,150702.66
2023-10-08T10:08:17.822Z,150602.66
2023-10-08T10:09:25.612Z,150649.03
2023-10-08T10:10:32.907Z,150573.38
2023-10-08T10:11:36.484Z,150468.47
2023-10-08T10:12:38.649Z,150402.63
2023-10-08T10:13:47.718Z,150375.75
2023-10-08T10:14:49.889Z,150272.16
2023-10-08T10:15:53.034Z,150263.63
2023-10-08T10:17:27.851Z,150359.91
2023-10-08T10:18:39.121Z,150433.09
2023-10-08T10:19:46.734Z,150451.41
2023-10-08T10:20:57.312Z,150383.16
2023-10-08T10:21:59.937Z,150342.84
2023-10-08T10:23:46.364Z,150273.38
2023-10-08T10:24:49.166Z,150253.91
2023-10-08T10:25:51.320Z,150267.28
2023-10-08T10:27:11.865Z,150342.84
2023-10-08T10:28:23.998Z,150429.44
2023-10-08T10:29:27.670Z,150363.56
2023-10-08T10:30:30.126Z,150301.41
2023-10-08T10:31:35.976Z,150351.41
2023-10-08T10:32:38.602Z,150383.16
2023-10-08T10:33:41.411Z,150407.50
2023-10-08T10:34:45.274Z,150512.34
2023-10-08T10:35:52.549Z,150572.16
2023-10-08T10:36:57.997Z,150546.47
2023-10-08T10:38:04.908Z,150591.69
2023-10-08T10:39:26.078Z,150534.31
2023-10-08T10:40:40.340Z,150724.66
2023-10-08T10:41:47.522Z,150918.78
2023-10-08T10:42:54.818Z,151171.50
2023-10-08T10:43:58.869Z,151414.72
2023-10-08T10:45:10.208Z,151677.56
2023-10-08T10:46:41.481Z,151775.41
2023-10-08T10:47:46.811Z,151785.19
2023-10-08T10:49:07.822Z,151796.19
2023-10-08T10:50:27.741Z,151824.31
2023-10-08T10:51:30.613Z,151790.06
2023-10-08T10:52:33.894Z,151826.75
2023-10-08T10:53:57.527Z,151638.44
2023-10-08T10:55:16.667Z,151655.53
2023-10-08T10:56:30.503Z,151453.81
2023-10-08T10:57:42.855Z,151276.63
2023-10-08T10:58:48.370Z,151150.78
2023-10-08T10:59:54.644Z,151142.25
2023-10-08T11:01:00.924Z,151066.47
2023-10-08T11:02:09.308Z,150897.97
2023-10-08T11:03:18.218Z,150841.81
2023-10-08T11:04:29.908Z,150757.63
2023-10-08T11:05:38.331Z,150716.13
2023-10-08T11:06:41.008Z,150753.97
2023-10-08T11:07:45.230Z,150680.75
2023-10-08T11:08:47.951Z,150674.59
2023-10-08T11:09:52.815Z,150666.06
2023-10-08T11:10:59.857Z,150527.00
2023-10-08T11:12:13.592Z,150623.41
2023-10-08T11:13:16.631Z,150655.13
2023-10-08T11:14:20.044Z,150675.81
2023-10-08T11:15:24.570Z,150666.06
2023-10-08T11:16:27.641Z,150563.59
2023-10-08T11:17:30.720Z,150536.75
2023-10-08T11:18:33.930Z,150568.50
2023-10-08T11:19:36.193Z,150528.22
2023-10-08T11:20:41.134Z,150468.47
2023-10-08T11:21:54.954Z,150474.53
2023-10-08T11:23:03.122Z,150456.28
2023-10-08T11:24:13.465Z,150427.03
2023-10-08T11:25:25.400Z,150416.06
2023-10-08T11:26:39.802Z,150373.31
2023-10-08T11:27:46.917Z,150419.72
2023-10-08T11:28:49.092Z,150424.59
2023-10-08T11:29:58.803Z,150422.16
2023-10-08T11:31:11.443Z,150418.50
2023-10-08T11:32:18.467Z,150405.06
2023-10-08T11:33:21.023Z,150433.09
2023-10-08T11:34:25.490Z,150395.31
2023-10-08T11:35:35.228Z,150398.97
2023-10-08T11:36:50.750Z,150400.19
2023-10-08T11:37:59.045Z,150305.06
2023-10-08T11:39:12.513Z,150329.44
2023-10-08T11:40:29.395Z,150405.06
2023-10-08T11:41:31.825Z,150400.19
2023-10-08T11:42:35.388Z,150474.53
2023-10-08T11:43:38.126Z,150363.56
2023-10-08T11:44:40.975Z,150385.56
2023-10-08T11:45:49.299Z,150409.94
2023-10-08T11:46:52.882Z,150401.41
2023-10-08T11:47:58.593Z,150368.44
2023-10-08T11:49:05.613Z,150401.41
2023-10-08T11:50:11.710Z,150444.06
2023-10-08T11:51:17.971Z,150335.53
2023-10-08T11:52:23.440Z,150328.22
2023-10-08T11:53:25.800Z,150328.22
2023-10-08T11:54:28.650Z,150222.22
2023-10-08T11:55:36.576Z,150131.97
2023-10-08T11:56:40.195Z,150094.22
2023-10-08T11:57:46.603Z,150080.78
2023-10-08T11:58:49.049Z,150083.22
2023-10-08T11:59:55.558Z,150068.63
2023-10-08T12:01:04.656Z,150102.75
2023-10-08T12:02:09.944Z,150134.41
2023-10-08T12:03:13.554Z,150107.59
2023-10-08T12:04:17.983Z,150138.06
2023-10-08T12:05:21.168Z,150168.53
2023-10-08T12:06:25.367Z,150242.91
2023-10-08T12:07:29.026Z,150297.75
2023-10-08T12:08:31.724Z,150420.94
2023-10-08T12:09:38.759Z,150319.72
2023-10-08T12:10:41.971Z,150431.88
2023-10-08T12:11:45.155Z,150513.56
2023-10-08T12:12:47.432Z,150675.81
2023-10-08T12:13:50.903Z,150712.47
2023-10-08T12:14:55.999Z,150735.59
2023-10-08T12:16:13.528Z,150695.38
2023-10-08T12:17:18.194Z,150631.94
2023-10-08T12:18:26.328Z,150601.44
2023-10-08T12:19:33.446Z,150588.03
2023-10-08T12:20:38.372Z,150417.28
2023-10-08T12:21:40.617Z,150311.13
2023-10-08T12:22:42.831Z,150339.19
2023-10-08T12:23:47.312Z,150319.72
2023-10-08T12:24:49.528Z,150383.16
2023-10-08T12:25:57.055Z,150244.13
2023-10-08T12:26:59.805Z,150239.25
2023-10-08T12:28:05.599Z,150297.75
2023-10-08T12:29:09.408Z,150317.28
2023-10-08T12:30:12.031Z,150476.97
2023-10-08T12:31:16.680Z,150527.00
2023-10-08T12:32:20.218Z,150661.19
2023-10-08T12:33:25.374Z,150735.59
2023-10-08T12:34:30.920Z,150824.75
2023-10-08T12:35:33.294Z,150815.00
2023-10-08T12:36:37.346Z,150890.66
2023-10-08T12:37:45.343Z,150722.22
2023-10-08T12:38:49.025Z,150673.38
2023-10-08T12:40:20.180Z,150646.59
2023-10-08T12:41:22.293Z,150657.56
2023-10-08T12:42:26.605Z,150625.84
2023-10-08T12:43:28.887Z,150490.41
2023-10-08T12:44:31.111Z,150392.88
2023-10-08T12:45:33.297Z,150270.94
2023-10-08T12:46:35.597Z,150217.28
2023-10-08T12:47:37.935Z,150309.91
2023-10-08T12:48:40.394Z,150263.63
2023-10-08T12:49:42.632Z,150241.69